sensor_id;sensor_type;location;lat;lon;timestamp;temperature;humidity
20777;DHT22;10548;47.504;8.248;2022-12-07T00:01:21;2.70;99.90
20777;DHT22;10548;47.504;8.248;2022-12-07T00:03:51;2.70;99.90
20777;DHT22;10548;47.504;8.248;2022-12-07T00:06:19;2.60;99.90
20777;DHT22;10548;47.504;8.248;2022-12-07T00:08:47;2.60;99.90
20777;DHT22;10548;47.504;8.248;2022-12-07T00:11:17;2.70;99.90
20777;DHT22;10548;47.504;8.248;2022-12-07T00:13:45;2.70;99.90
20777;DHT22;10548;47.504;8.248;2022-12-07T00:16:14;2.70;99.90
20777;DHT22;10548;47.504;8.248;2022-12-07T00:18:42;2.70;99.90
20777;DHT22;10548;47.504;8.248;2022-12-07T00:21:15;2.70;99.90
20777;DHT22;10548;47.504;8.248;2022-12-07T00:23:43;2.70;99.90
20777;DHT22;10548;47.504;8.248;2022-12-07T00:26:22;2.70;99.90
20777;DHT22;10548;47.504;8.248;2022-12-07T00:29:01;2.70;99.90
20777;DHT22;10548;47.504;8.248;2022-12-07T00:31:31;2.70;99.90
20777;DHT22;10548;47.504;8.248;2022-12-07T00:34:00;2.70;99.90
20777;DHT22;10548;47.504;8.248;2022-12-07T00:36:27;2.60;99.90
20777;DHT22;10548;47.504;8.248;2022-12-07T00:38:55;2.60;99.90
20777;DHT22;10548;47.504;8.248;2022-12-07T00:41:25;2.60;99.90
20777;DHT22;10548;47.504;8.248;2022-12-07T00:43:53;2.60;99.90
20777;DHT22;10548;47.504;8.248;2022-12-07T00:46:21;2.60;99.90
20777;DHT22;10548;47.504;8.248;2022-12-07T00:48:49;2.70;99.90
20777;DHT22;10548;47.504;8.248;2022-12-07T00:51:19;2.70;99.90
20777;DHT22;10548;47.504;8.248;2022-12-07T00:53:47;2.70;99.90
20777;DHT22;10548;47.504;8.248;2022-12-07T00:56:19;2.70;99.90
20777;DHT22;10548;47.504;8.248;2022-12-07T00:58:58;2.70;99.90
20777;DHT22;10548;47.504;8.248;2022-12-07T01:01:28;2.70;99.90
20777;DHT22;10548;47.504;8.248;2022-12-07T01:03:55;2.70;99.90
20777;DHT22;10548;47.504;8.248;2022-12-07T01:06:23;2.70;99.90
20777;DHT22;10548;47.504;8.248;2022-12-07T01:08:51;2.70;99.90
20777;DHT22;10548;47.504;8.248;2022-12-07T01:11:21;2.70;99.90
20777;DHT22;10548;47.504;8.248;2022-12-07T01:13:50;2.70;99.90
20777;DHT22;10548;47.504;8.248;2022-12-07T01:16:19;2.70;99.90
20777;DHT22;10548;47.504;8.248;2022-12-07T01:18:48;2.60;99.90
20777;DHT22;10548;47.504;8.248;2022-12-07T01:21:18;2.70;99.90
20777;DHT22;10548;47.504;8.248;2022-12-07T01:23:48;2.70;99.90
20777;DHT22;10548;47.504;8.248;2022-12-07T01:26:19;2.70;99.90
20777;DHT22;10548;47.504;8.248;2022-12-07T01:28:46;2.70;99.90
20777;DHT22;10548;47.504;8.248;2022-12-07T01:31:19;2.70;99.90
20777;DHT22;10548;47.504;8.248;2022-12-07T01:33:50;2.70;99.90
20777;DHT22;10548;47.504;8.248;2022-12-07T01:36:25;2.70;99.90
20777;DHT22;10548;47.504;8.248;2022-12-07T01:39:01;2.70;99.90
20777;DHT22;10548;47.504;8.248;2022-12-07T01:41:32;2.70;99.90
20777;DHT22;10548;47.504;8.248;2022-12-07T01:44:23;2.70;99.90
20777;DHT22;10548;47.504;8.248;2022-12-07T01:47:01;2.70;99.90
20777;DHT22;10548;47.504;8.248;2022-12-07T01:49:41;2.70;99.90
20777;DHT22;10548;47.504;8.248;2022-12-07T01:52:20;2.70;99.90
20777;DHT22;10548;47.504;8.248;2022-12-07T01:54:54;2.70;99.90
20777;DHT22;10548;47.504;8.248;2022-12-07T01:57:22;2.70;99.90
20777;DHT22;10548;47.504;8.248;2022-12-07T01:59:51;2.70;99.90
20777;DHT22;10548;47.504;8.248;2022-12-07T02:02:37;2.70;99.90
20777;DHT22;10548;47.504;8.248;2022-12-07T02:05:06;2.70;99.90
20777;DHT22;10548;47.504;8.248;2022-12-07T02:07:36;2.70;99.90
20777;DHT22;10548;47.504;8.248;2022-12-07T02:10:17;2.70;99.90
20777;DHT22;10548;47.504;8.248;2022-12-07T02:12:48;2.70;99.90
20777;DHT22;10548;47.504;8.248;2022-12-07T02:15:17;2.70;99.90
20777;DHT22;10548;47.504;8.248;2022-12-07T02:18:25;2.70;99.90
20777;DHT22;10548;47.504;8.248;2022-12-07T02:21:26;2.80;99.90
20777;DHT22;10548;47.504;8.248;2022-12-07T02:27:36;2.70;99.90
20777;DHT22;10548;47.504;8.248;2022-12-07T02:30:10;2.70;99.90
20777;DHT22;10548;47.504;8.248;2022-12-07T02:32:57;2.70;99.90
20777;DHT22;10548;47.504;8.248;2022-12-07T02:35:42;2.70;99.90
20777;DHT22;10548;47.504;8.248;2022-12-07T02:38:35;2.70;99.90
20777;DHT22;10548;47.504;8.248;2022-12-07T02:41:13;2.70;99.90
20777;DHT22;10548;47.504;8.248;2022-12-07T02:43:50;2.70;99.90
20777;DHT22;10548;47.504;8.248;2022-12-07T02:46:38;2.80;99.90
20777;DHT22;10548;47.504;8.248;2022-12-07T02:49:06;2.90;99.90
20777;DHT22;10548;47.504;8.248;2022-12-07T02:51:39;2.80;99.90
20777;DHT22;10548;47.504;8.248;2022-12-07T02:54:17;2.80;99.90
20777;DHT22;10548;47.504;8.248;2022-12-07T02:56:53;2.80;99.90
20777;DHT22;10548;47.504;8.248;2022-12-07T03:00:08;2.70;99.90
20777;DHT22;10548;47.504;8.248;2022-12-07T03:05:45;2.80;99.90
20777;DHT22;10548;47.504;8.248;2022-12-07T03:11:44;2.90;99.90
20777;DHT22;10548;47.504;8.248;2022-12-07T03:14:23;2.80;99.90
20777;DHT22;10548;47.504;8.248;2022-12-07T03:17:33;2.80;99.90
20777;DHT22;10548;47.504;8.248;2022-12-07T03:19:56;2.90;99.90
20777;DHT22;10548;47.504;8.248;2022-12-07T03:22:28;3.00;99.90
20777;DHT22;10548;47.504;8.248;2022-12-07T03:25:03;2.90;99.90
20777;DHT22;10548;47.504;8.248;2022-12-07T03:27:40;2.90;99.90
20777;DHT22;10548;47.504;8.248;2022-12-07T03:30:33;2.90;99.90
20777;DHT22;10548;47.504;8.248;2022-12-07T03:33:10;3.00;99.90
20777;DHT22;10548;47.504;8.248;2022-12-07T03:35:45;2.90;99.90
20777;DHT22;10548;47.504;8.248;2022-12-07T03:38:38;3.00;99.90
20777;DHT22;10548;47.504;8.248;2022-12-07T03:41:24;3.00;99.90
20777;DHT22;10548;47.504;8.248;2022-12-07T03:43:54;3.00;99.90
20777;DHT22;10548;47.504;8.248;2022-12-07T03:46:52;3.00;99.90
20777;DHT22;10548;47.504;8.248;2022-12-07T03:49:55;2.90;99.90
20777;DHT22;10548;47.504;8.248;2022-12-07T03:52:39;3.00;99.90
20777;DHT22;10548;47.504;8.248;2022-12-07T03:55:22;3.00;99.90
20777;DHT22;10548;47.504;8.248;2022-12-07T03:57:55;3.10;99.90
20777;DHT22;10548;47.504;8.248;2022-12-07T04:00:23;3.10;99.90
20777;DHT22;10548;47.504;8.248;2022-12-07T04:02:54;3.10;99.90
20777;DHT22;10548;47.504;8.248;2022-12-07T04:05:22;3.10;99.90
20777;DHT22;10548;47.504;8.248;2022-12-07T04:07:50;3.10;99.90
20777;DHT22;10548;47.504;8.248;2022-12-07T04:10:17;3.10;99.90
20777;DHT22;10548;47.504;8.248;2022-12-07T04:12:45;3.10;99.90
20777;DHT22;10548;47.504;8.248;2022-12-07T04:15:12;3.00;99.90
20777;DHT22;10548;47.504;8.248;2022-12-07T04:17:39;3.00;99.90
20777;DHT22;10548;47.504;8.248;2022-12-07T04:20:07;3.00;99.90
20777;DHT22;10548;47.504;8.248;2022-12-07T04:22:34;3.00;99.90
20777;DHT22;10548;47.504;8.248;2022-12-07T04:25:02;3.10;99.90
20777;DHT22;10548;47.504;8.248;2022-12-07T04:27:29;3.10;99.90
20777;DHT22;10548;47.504;8.248;2022-12-07T04:29:56;3.00;99.90
20777;DHT22;10548;47.504;8.248;2022-12-07T04:32:24;3.00;99.90
20777;DHT22;10548;47.504;8.248;2022-12-07T04:34:51;3.00;99.90
20777;DHT22;10548;47.504;8.248;2022-12-07T04:37:22;3.00;99.90
20777;DHT22;10548;47.504;8.248;2022-12-07T04:39:49;3.00;99.90
20777;DHT22;10548;47.504;8.248;2022-12-07T04:42:16;3.00;99.90
20777;DHT22;10548;47.504;8.248;2022-12-07T04:44:43;3.00;99.90
20777;DHT22;10548;47.504;8.248;2022-12-07T04:47:11;3.10;99.90
20777;DHT22;10548;47.504;8.248;2022-12-07T04:49:38;3.00;99.90
20777;DHT22;10548;47.504;8.248;2022-12-07T04:52:05;3.10;99.90
20777;DHT22;10548;47.504;8.248;2022-12-07T04:54:33;3.00;99.90
20777;DHT22;10548;47.504;8.248;2022-12-07T04:57:00;3.00;99.90
20777;DHT22;10548;47.504;8.248;2022-12-07T04:59:27;3.00;99.90
20777;DHT22;10548;47.504;8.248;2022-12-07T05:01:54;3.00;99.90
20777;DHT22;10548;47.504;8.248;2022-12-07T05:04:21;3.00;99.90
20777;DHT22;10548;47.504;8.248;2022-12-07T05:06:48;3.00;99.90
20777;DHT22;10548;47.504;8.248;2022-12-07T05:09:15;3.00;99.90
20777;DHT22;10548;47.504;8.248;2022-12-07T05:11:42;3.00;99.90
20777;DHT22;10548;47.504;8.248;2022-12-07T05:14:20;3.00;99.90
20777;DHT22;10548;47.504;8.248;2022-12-07T05:16:49;2.90;99.90
20777;DHT22;10548;47.504;8.248;2022-12-07T05:19:18;3.00;99.90
20777;DHT22;10548;47.504;8.248;2022-12-07T05:21:46;2.90;99.90
20777;DHT22;10548;47.504;8.248;2022-12-07T05:24:14;2.90;99.90
20777;DHT22;10548;47.504;8.248;2022-12-07T05:26:42;2.90;99.90
20777;DHT22;10548;47.504;8.248;2022-12-07T05:29:12;3.00;99.90
20777;DHT22;10548;47.504;8.248;2022-12-07T05:31:40;3.00;99.90
20777;DHT22;10548;47.504;8.248;2022-12-07T05:34:07;2.90;99.90
20777;DHT22;10548;47.504;8.248;2022-12-07T05:36:34;3.00;99.90
20777;DHT22;10548;47.504;8.248;2022-12-07T05:39:01;3.00;99.90
20777;DHT22;10548;47.504;8.248;2022-12-07T05:41:28;3.00;99.90
20777;DHT22;10548;47.504;8.248;2022-12-07T05:44:14;3.10;99.90
20777;DHT22;10548;47.504;8.248;2022-12-07T05:46:41;3.10;99.90
20777;DHT22;10548;47.504;8.248;2022-12-07T05:49:09;3.10;99.90
20777;DHT22;10548;47.504;8.248;2022-12-07T05:51:36;3.20;99.90
20777;DHT22;10548;47.504;8.248;2022-12-07T05:54:03;3.10;99.90
20777;DHT22;10548;47.504;8.248;2022-12-07T05:56:30;3.10;99.90
20777;DHT22;10548;47.504;8.248;2022-12-07T05:58:57;3.20;99.90
20777;DHT22;10548;47.504;8.248;2022-12-07T06:01:43;3.10;99.90
20777;DHT22;10548;47.504;8.248;2022-12-07T06:04:10;3.10;99.90
20777;DHT22;10548;47.504;8.248;2022-12-07T06:06:37;3.20;99.90
20777;DHT22;10548;47.504;8.248;2022-12-07T06:09:04;3.20;99.90
20777;DHT22;10548;47.504;8.248;2022-12-07T06:11:32;3.20;99.90
20777;DHT22;10548;47.504;8.248;2022-12-07T06:14:17;3.10;99.90
20777;DHT22;10548;47.504;8.248;2022-12-07T06:16:45;3.10;99.90
20777;DHT22;10548;47.504;8.248;2022-12-07T06:19:12;3.10;99.90
20777;DHT22;10548;47.504;8.248;2022-12-07T06:21:39;3.20;99.90
20777;DHT22;10548;47.504;8.248;2022-12-07T06:24:06;3.20;99.90
20777;DHT22;10548;47.504;8.248;2022-12-07T06:26:33;3.20;99.90
20777;DHT22;10548;47.504;8.248;2022-12-07T06:29:00;3.20;99.90
20777;DHT22;10548;47.504;8.248;2022-12-07T06:31:28;3.20;99.90
20777;DHT22;10548;47.504;8.248;2022-12-07T06:33:59;3.20;99.90
20777;DHT22;10548;47.504;8.248;2022-12-07T06:36:27;3.20;99.90
20777;DHT22;10548;47.504;8.248;2022-12-07T06:38:54;3.20;99.90
20777;DHT22;10548;47.504;8.248;2022-12-07T06:41:21;3.20;99.90
20777;DHT22;10548;47.504;8.248;2022-12-07T06:43:49;3.30;99.90
20777;DHT22;10548;47.504;8.248;2022-12-07T06:46:22;3.20;99.90
20777;DHT22;10548;47.504;8.248;2022-12-07T06:48:50;3.00;99.90
20777;DHT22;10548;47.504;8.248;2022-12-07T06:51:17;3.10;99.90
20777;DHT22;10548;47.504;8.248;2022-12-07T06:53:44;3.10;99.90
20777;DHT22;10548;47.504;8.248;2022-12-07T06:56:11;3.10;99.90
20777;DHT22;10548;47.504;8.248;2022-12-07T06:58:39;3.10;99.90
20777;DHT22;10548;47.504;8.248;2022-12-07T07:01:14;3.10;99.90
20777;DHT22;10548;47.504;8.248;2022-12-07T07:03:43;3.00;99.90
20777;DHT22;10548;47.504;8.248;2022-12-07T07:06:10;3.00;99.90
20777;DHT22;10548;47.504;8.248;2022-12-07T07:08:38;3.10;99.90
20777;DHT22;10548;47.504;8.248;2022-12-07T07:11:06;3.00;99.90
20777;DHT22;10548;47.504;8.248;2022-12-07T07:13:34;2.90;99.90
20777;DHT22;10548;47.504;8.248;2022-12-07T07:16:01;2.90;99.90
20777;DHT22;10548;47.504;8.248;2022-12-07T07:18:28;2.90;99.90
20777;DHT22;10548;47.504;8.248;2022-12-07T07:20:56;2.90;99.90
20777;DHT22;10548;47.504;8.248;2022-12-07T07:23:23;2.90;99.90
20777;DHT22;10548;47.504;8.248;2022-12-07T07:25:50;2.90;99.90
20777;DHT22;10548;47.504;8.248;2022-12-07T07:28:18;2.90;99.90
20777;DHT22;10548;47.504;8.248;2022-12-07T07:30:45;3.00;99.90
20777;DHT22;10548;47.504;8.248;2022-12-07T07:33:12;3.10;99.90
20777;DHT22;10548;47.504;8.248;2022-12-07T07:35:39;3.10;99.90
20777;DHT22;10548;47.504;8.248;2022-12-07T07:38:07;3.10;99.90
20777;DHT22;10548;47.504;8.248;2022-12-07T07:40:34;3.20;99.90
20777;DHT22;10548;47.504;8.248;2022-12-07T07:43:02;3.30;99.90
20777;DHT22;10548;47.504;8.248;2022-12-07T07:45:29;3.30;99.90
20777;DHT22;10548;47.504;8.248;2022-12-07T07:47:56;3.30;99.90
20777;DHT22;10548;47.504;8.248;2022-12-07T07:50:23;3.30;99.90
20777;DHT22;10548;47.504;8.248;2022-12-07T07:52:51;3.20;99.90
20777;DHT22;10548;47.504;8.248;2022-12-07T07:55:19;3.30;99.90
20777;DHT22;10548;47.504;8.248;2022-12-07T07:57:46;3.30;99.90
20777;DHT22;10548;47.504;8.248;2022-12-07T08:00:21;3.20;99.90
20777;DHT22;10548;47.504;8.248;2022-12-07T08:02:48;3.20;99.90
20777;DHT22;10548;47.504;8.248;2022-12-07T08:05:16;3.10;99.90
20777;DHT22;10548;47.504;8.248;2022-12-07T08:07:43;3.20;99.90
20777;DHT22;10548;47.504;8.248;2022-12-07T08:10:12;3.20;99.90
20777;DHT22;10548;47.504;8.248;2022-12-07T08:12:40;3.10;99.90
20777;DHT22;10548;47.504;8.248;2022-12-07T08:15:28;3.10;99.90
20777;DHT22;10548;47.504;8.248;2022-12-07T08:17:56;3.20;99.90
20777;DHT22;10548;47.504;8.248;2022-12-07T08:20:23;3.10;99.90
20777;DHT22;10548;47.504;8.248;2022-12-07T08:22:50;3.20;99.90
20777;DHT22;10548;47.504;8.248;2022-12-07T08:25:18;3.20;99.90
20777;DHT22;10548;47.504;8.248;2022-12-07T08:27:45;3.30;99.90
20777;DHT22;10548;47.504;8.248;2022-12-07T08:30:12;3.30;99.90
20777;DHT22;10548;47.504;8.248;2022-12-07T08:32:39;3.30;99.90
20777;DHT22;10548;47.504;8.248;2022-12-07T08:35:07;3.40;99.90
20777;DHT22;10548;47.504;8.248;2022-12-07T08:37:35;3.40;99.90
20777;DHT22;10548;47.504;8.248;2022-12-07T08:40:05;3.40;99.90
20777;DHT22;10548;47.504;8.248;2022-12-07T08:42:32;3.50;99.90
20777;DHT22;10548;47.504;8.248;2022-12-07T08:45:10;3.60;99.90
20777;DHT22;10548;47.504;8.248;2022-12-07T08:47:40;3.60;99.90
20777;DHT22;10548;47.504;8.248;2022-12-07T08:50:10;3.50;99.90
20777;DHT22;10548;47.504;8.248;2022-12-07T08:52:38;3.50;99.90
20777;DHT22;10548;47.504;8.248;2022-12-07T08:55:10;3.50;99.90
20777;DHT22;10548;47.504;8.248;2022-12-07T08:57:38;3.60;99.90
20777;DHT22;10548;47.504;8.248;2022-12-07T09:00:07;3.60;99.90
20777;DHT22;10548;47.504;8.248;2022-12-07T09:02:34;3.70;99.90
20777;DHT22;10548;47.504;8.248;2022-12-07T09:05:02;3.70;99.90
20777;DHT22;10548;47.504;8.248;2022-12-07T09:07:30;3.80;99.90
20777;DHT22;10548;47.504;8.248;2022-12-07T09:09:59;3.80;99.90
20777;DHT22;10548;47.504;8.248;2022-12-07T09:12:27;3.90;99.90
20777;DHT22;10548;47.504;8.248;2022-12-07T09:14:54;3.60;99.90
20777;DHT22;10548;47.504;8.248;2022-12-07T09:17:21;3.50;99.90
20777;DHT22;10548;47.504;8.248;2022-12-07T09:19:48;3.50;99.90
20777;DHT22;10548;47.504;8.248;2022-12-07T09:22:15;3.50;99.90
20777;DHT22;10548;47.504;8.248;2022-12-07T09:24:42;3.50;99.90
20777;DHT22;10548;47.504;8.248;2022-12-07T09:27:11;3.50;99.90
20777;DHT22;10548;47.504;8.248;2022-12-07T09:29:38;3.50;99.90
20777;DHT22;10548;47.504;8.248;2022-12-07T09:32:05;3.50;99.90
20777;DHT22;10548;47.504;8.248;2022-12-07T09:34:37;3.60;99.90
20777;DHT22;10548;47.504;8.248;2022-12-07T09:37:04;3.50;99.90
20777;DHT22;10548;47.504;8.248;2022-12-07T09:39:33;3.50;99.90
20777;DHT22;10548;47.504;8.248;2022-12-07T09:42:03;3.70;99.90
20777;DHT22;10548;47.504;8.248;2022-12-07T09:44:31;3.80;99.90
20777;DHT22;10548;47.504;8.248;2022-12-07T09:46:58;3.90;99.90
20777;DHT22;10548;47.504;8.248;2022-12-07T09:49:29;3.90;99.90
20777;DHT22;10548;47.504;8.248;2022-12-07T09:54:50;4.00;99.90
20777;DHT22;10548;47.504;8.248;2022-12-07T09:57:25;4.00;99.90
20777;DHT22;10548;47.504;8.248;2022-12-07T09:59:56;4.00;99.90
20777;DHT22;10548;47.504;8.248;2022-12-07T10:02:35;3.80;99.90
20777;DHT22;10548;47.504;8.248;2022-12-07T10:05:10;4.00;99.90
20777;DHT22;10548;47.504;8.248;2022-12-07T10:07:39;4.20;99.90
20777;DHT22;10548;47.504;8.248;2022-12-07T10:10:14;4.10;99.90
20777;DHT22;10548;47.504;8.248;2022-12-07T10:13:00;4.00;99.90
20777;DHT22;10548;47.504;8.248;2022-12-07T10:16:07;4.10;99.90
20777;DHT22;10548;47.504;8.248;2022-12-07T10:18:51;4.10;99.90
20777;DHT22;10548;47.504;8.248;2022-12-07T10:21:26;4.00;99.90
20777;DHT22;10548;47.504;8.248;2022-12-07T10:24:14;4.20;99.90
20777;DHT22;10548;47.504;8.248;2022-12-07T10:26:52;4.40;99.90
20777;DHT22;10548;47.504;8.248;2022-12-07T10:29:31;4.20;99.90
20777;DHT22;10548;47.504;8.248;2022-12-07T10:35:25;4.30;99.90
20777;DHT22;10548;47.504;8.248;2022-12-07T10:37:54;4.40;99.90
20777;DHT22;10548;47.504;8.248;2022-12-07T10:40:33;4.30;99.90
20777;DHT22;10548;47.504;8.248;2022-12-07T10:50:18;4.60;99.90
20777;DHT22;10548;47.504;8.248;2022-12-07T10:56:28;4.70;99.90
20777;DHT22;10548;47.504;8.248;2022-12-07T10:59:39;4.80;99.90
20777;DHT22;10548;47.504;8.248;2022-12-07T11:02:43;4.80;99.90
20777;DHT22;10548;47.504;8.248;2022-12-07T11:05:34;4.70;99.90
20777;DHT22;10548;47.504;8.248;2022-12-07T11:08:38;4.80;99.90
20777;DHT22;10548;47.504;8.248;2022-12-07T11:11:38;4.70;99.90
20777;DHT22;10548;47.504;8.248;2022-12-07T11:14:51;4.90;99.90
20777;DHT22;10548;47.504;8.248;2022-12-07T11:18:06;4.80;99.90
20777;DHT22;10548;47.504;8.248;2022-12-07T11:20:59;4.90;99.90
20777;DHT22;10548;47.504;8.248;2022-12-07T11:23:50;4.80;99.90
20777;DHT22;10548;47.504;8.248;2022-12-07T11:29:49;4.80;99.90
20777;DHT22;10548;47.504;8.248;2022-12-07T11:35:53;4.80;99.90
20777;DHT22;10548;47.504;8.248;2022-12-07T11:38:30;4.90;99.90
20777;DHT22;10548;47.504;8.248;2022-12-07T11:41:03;5.10;99.90
20777;DHT22;10548;47.504;8.248;2022-12-07T11:43:54;5.30;99.90
20777;DHT22;10548;47.504;8.248;2022-12-07T11:46:58;5.10;99.90
20777;DHT22;10548;47.504;8.248;2022-12-07T11:52:52;5.20;99.90
20777;DHT22;10548;47.504;8.248;2022-12-07T11:55:29;5.20;99.90
20777;DHT22;10548;47.504;8.248;2022-12-07T11:58:18;5.30;99.90
20777;DHT22;10548;47.504;8.248;2022-12-07T12:00:47;5.20;99.90
20777;DHT22;10548;47.504;8.248;2022-12-07T12:03:28;5.20;99.90
20777;DHT22;10548;47.504;8.248;2022-12-07T12:05:58;5.10;99.90
20777;DHT22;10548;47.504;8.248;2022-12-07T12:08:46;5.10;99.90
20777;DHT22;10548;47.504;8.248;2022-12-07T12:15:47;5.30;99.90
20777;DHT22;10548;47.504;8.248;2022-12-07T12:20:19;5.70;99.90
20777;DHT22;10548;47.504;8.248;2022-12-07T12:21:36;5.60;99.90
20777;DHT22;10548;47.504;8.248;2022-12-07T12:24:25;5.70;99.90
20777;DHT22;10548;47.504;8.248;2022-12-07T12:27:01;5.60;99.90
20777;DHT22;10548;47.504;8.248;2022-12-07T12:29:38;5.80;99.90
20777;DHT22;10548;47.504;8.248;2022-12-07T12:32:18;6.00;99.90
20777;DHT22;10548;47.504;8.248;2022-12-07T12:41:03;6.10;99.90
20777;DHT22;10548;47.504;8.248;2022-12-07T12:43:49;6.70;99.90
20777;DHT22;10548;47.504;8.248;2022-12-07T12:46:54;6.70;99.90
20777;DHT22;10548;47.504;8.248;2022-12-07T12:49:43;7.20;99.90
20777;DHT22;10548;47.504;8.248;2022-12-07T12:55:58;6.60;99.90
20777;DHT22;10548;47.504;8.248;2022-12-07T12:58:33;6.90;99.90
20777;DHT22;10548;47.504;8.248;2022-12-07T13:01:54;7.20;99.90
20777;DHT22;10548;47.504;8.248;2022-12-07T13:04:27;7.80;99.00
20777;DHT22;10548;47.504;8.248;2022-12-07T13:06:56;7.30;99.60
20777;DHT22;10548;47.504;8.248;2022-12-07T13:09:26;7.10;99.90
20777;DHT22;10548;47.504;8.248;2022-12-07T13:12:04;7.00;99.80
20777;DHT22;10548;47.504;8.248;2022-12-07T13:14:52;7.00;99.90
20777;DHT22;10548;47.504;8.248;2022-12-07T13:17:55;6.50;99.90
20777;DHT22;10548;47.504;8.248;2022-12-07T13:20:43;5.90;99.90
20777;DHT22;10548;47.504;8.248;2022-12-07T13:23:10;6.00;99.90
20777;DHT22;10548;47.504;8.248;2022-12-07T13:28:41;6.00;99.90
20777;DHT22;10548;47.504;8.248;2022-12-07T13:31:35;5.90;99.90
20777;DHT22;10548;47.504;8.248;2022-12-07T13:34:03;6.10;99.90
20777;DHT22;10548;47.504;8.248;2022-12-07T13:36:38;6.30;99.90
20777;DHT22;10548;47.504;8.248;2022-12-07T13:39:20;6.20;99.90
20777;DHT22;10548;47.504;8.248;2022-12-07T13:41:52;6.50;99.90
20777;DHT22;10548;47.504;8.248;2022-12-07T13:44:20;6.40;99.90
20777;DHT22;10548;47.504;8.248;2022-12-07T13:47:16;6.20;99.90
20777;DHT22;10548;47.504;8.248;2022-12-07T13:49:53;6.20;99.90
20777;DHT22;10548;47.504;8.248;2022-12-07T13:52:26;6.40;99.90
20777;DHT22;10548;47.504;8.248;2022-12-07T13:55:06;6.90;99.30
20777;DHT22;10548;47.504;8.248;2022-12-07T13:57:40;7.10;97.90
20777;DHT22;10548;47.504;8.248;2022-12-07T14:00:19;8.30;93.90
20777;DHT22;10548;47.504;8.248;2022-12-07T14:03:25;10.90;77.40
20777;DHT22;10548;47.504;8.248;2022-12-07T14:06:16;13.10;57.50
20777;DHT22;10548;47.504;8.248;2022-12-07T14:08:44;13.10;54.90
20777;DHT22;10548;47.504;8.248;2022-12-07T14:11:20;12.50;53.00
20777;DHT22;10548;47.504;8.248;2022-12-07T14:14:01;11.70;54.90
20777;DHT22;10548;47.504;8.248;2022-12-07T14:16:35;11.50;54.20
20777;DHT22;10548;47.504;8.248;2022-12-07T14:19:06;9.20;62.00
20777;DHT22;10548;47.504;8.248;2022-12-07T14:22:17;8.80;69.30
20777;DHT22;10548;47.504;8.248;2022-12-07T14:24:45;8.20;76.80
20777;DHT22;10548;47.504;8.248;2022-12-07T14:27:21;9.80;72.40
20777;DHT22;10548;47.504;8.248;2022-12-07T14:29:49;10.50;68.70
20777;DHT22;10548;47.504;8.248;2022-12-07T14:32:35;10.00;69.50
20777;DHT22;10548;47.504;8.248;2022-12-07T14:35:12;8.40;77.90
20777;DHT22;10548;47.504;8.248;2022-12-07T14:37:41;8.50;81.90
20777;DHT22;10548;47.504;8.248;2022-12-07T14:40:13;8.20;82.30
20777;DHT22;10548;47.504;8.248;2022-12-07T14:42:42;7.40;88.80
20777;DHT22;10548;47.504;8.248;2022-12-07T14:45:19;6.70;91.80
20777;DHT22;10548;47.504;8.248;2022-12-07T14:47:47;6.30;94.00
20777;DHT22;10548;47.504;8.248;2022-12-07T14:50:38;5.90;96.30
20777;DHT22;10548;47.504;8.248;2022-12-07T14:53:30;5.70;98.40
20777;DHT22;10548;47.504;8.248;2022-12-07T14:55:58;5.50;99.60
20777;DHT22;10548;47.504;8.248;2022-12-07T14:58:25;5.80;99.90
20777;DHT22;10548;47.504;8.248;2022-12-07T15:00:52;6.90;97.70
20777;DHT22;10548;47.504;8.248;2022-12-07T15:03:19;7.00;95.00
20777;DHT22;10548;47.504;8.248;2022-12-07T15:05:47;7.10;95.20
20777;DHT22;10548;47.504;8.248;2022-12-07T15:08:14;7.10;94.30
20777;DHT22;10548;47.504;8.248;2022-12-07T15:10:41;6.40;96.00
20777;DHT22;10548;47.504;8.248;2022-12-07T15:13:08;6.00;97.50
20777;DHT22;10548;47.504;8.248;2022-12-07T15:15:54;6.50;97.00
20777;DHT22;10548;47.504;8.248;2022-12-07T15:18:23;6.80;95.70
20777;DHT22;10548;47.504;8.248;2022-12-07T15:20:50;6.00;96.60
20777;DHT22;10548;47.504;8.248;2022-12-07T15:23:18;5.40;99.40
20777;DHT22;10548;47.504;8.248;2022-12-07T15:25:47;4.90;99.90
20777;DHT22;10548;47.504;8.248;2022-12-07T15:28:15;4.60;99.90
20777;DHT22;10548;47.504;8.248;2022-12-07T15:30:43;4.30;99.90
20777;DHT22;10548;47.504;8.248;2022-12-07T15:33:11;4.00;99.90
20777;DHT22;10548;47.504;8.248;2022-12-07T15:35:43;3.80;99.90
20777;DHT22;10548;47.504;8.248;2022-12-07T15:38:11;3.70;99.90
20777;DHT22;10548;47.504;8.248;2022-12-07T15:40:38;3.50;99.90
20777;DHT22;10548;47.504;8.248;2022-12-07T15:43:07;3.40;99.90
20777;DHT22;10548;47.504;8.248;2022-12-07T15:45:55;3.30;99.90
20777;DHT22;10548;47.504;8.248;2022-12-07T15:48:22;3.10;99.90
20777;DHT22;10548;47.504;8.248;2022-12-07T15:51:02;3.00;99.90
20777;DHT22;10548;47.504;8.248;2022-12-07T15:53:29;2.80;99.90
20777;DHT22;10548;47.504;8.248;2022-12-07T15:55:56;2.80;99.90
20777;DHT22;10548;47.504;8.248;2022-12-07T15:58:23;2.70;99.90
20777;DHT22;10548;47.504;8.248;2022-12-07T16:00:50;2.50;99.90
20777;DHT22;10548;47.504;8.248;2022-12-07T16:03:17;2.30;99.90
20777;DHT22;10548;47.504;8.248;2022-12-07T16:05:51;2.30;99.90
20777;DHT22;10548;47.504;8.248;2022-12-07T16:08:20;2.40;99.90
20777;DHT22;10548;47.504;8.248;2022-12-07T16:10:47;2.40;99.90
20777;DHT22;10548;47.504;8.248;2022-12-07T16:13:14;2.30;99.90
20777;DHT22;10548;47.504;8.248;2022-12-07T16:15:42;2.20;99.90
20777;DHT22;10548;47.504;8.248;2022-12-07T16:18:09;2.20;99.90
20777;DHT22;10548;47.504;8.248;2022-12-07T16:20:36;2.20;99.90
20777;DHT22;10548;47.504;8.248;2022-12-07T16:23:03;2.20;99.90
20777;DHT22;10548;47.504;8.248;2022-12-07T16:25:30;2.00;99.90
20777;DHT22;10548;47.504;8.248;2022-12-07T16:27:57;2.00;99.90
20777;DHT22;10548;47.504;8.248;2022-12-07T16:30:25;2.00;99.90
20777;DHT22;10548;47.504;8.248;2022-12-07T16:32:52;1.90;99.90
20777;DHT22;10548;47.504;8.248;2022-12-07T16:35:25;1.90;99.90
20777;DHT22;10548;47.504;8.248;2022-12-07T16:37:52;2.00;99.90
20777;DHT22;10548;47.504;8.248;2022-12-07T16:40:19;1.70;99.90
20777;DHT22;10548;47.504;8.248;2022-12-07T16:42:46;1.50;99.90
20777;DHT22;10548;47.504;8.248;2022-12-07T16:45:13;1.50;99.90
20777;DHT22;10548;47.504;8.248;2022-12-07T16:47:46;1.50;99.90
20777;DHT22;10548;47.504;8.248;2022-12-07T16:50:13;1.50;99.90
20777;DHT22;10548;47.504;8.248;2022-12-07T16:52:40;1.50;99.90
20777;DHT22;10548;47.504;8.248;2022-12-07T16:55:08;1.50;99.90
20777;DHT22;10548;47.504;8.248;2022-12-07T16:57:35;1.50;99.90
20777;DHT22;10548;47.504;8.248;2022-12-07T17:00:03;1.50;99.90
20777;DHT22;10548;47.504;8.248;2022-12-07T17:02:31;1.40;99.90
20777;DHT22;10548;47.504;8.248;2022-12-07T17:04:58;1.30;99.90
20777;DHT22;10548;47.504;8.248;2022-12-07T17:07:25;1.40;99.90
20777;DHT22;10548;47.504;8.248;2022-12-07T17:09:52;1.40;99.90
20777;DHT22;10548;47.504;8.248;2022-12-07T17:12:20;1.30;99.90
20777;DHT22;10548;47.504;8.248;2022-12-07T17:14:47;1.20;99.90
20777;DHT22;10548;47.504;8.248;2022-12-07T17:17:33;1.20;99.90
20777;DHT22;10548;47.504;8.248;2022-12-07T17:20:00;1.10;99.90